Time;durP1;ratioP1;P1;durP2;ratioP2;P2;SDS_P1;SDS_P2;PMS_P1;PMS_P2;Temp;Humidity;BMP_temperature;BMP_pressure;BME280_temperature;BME280_humidity;BME280_pressure;Samples;Min_cycle;Max_cycle;Signal;HPM_P1;HPM_P2
2022/10/16 00:01:47;;;;;;;3.22;1.52;;;13.60;99.90;;;;;;5027365;28;20037;-83
2022/10/16 00:04:13;;;;;;;3.15;1.80;;;13.60;99.90;;;;;;5011680;28;20539;-84
2022/10/16 00:06:38;;;;;;;3.22;1.33;;;13.60;99.90;;;;;;4995634;28;20044;-85
2022/10/16 00:09:04;;;;;;;2.08;1.63;;;13.60;99.90;;;;;;5011402;28;20040;-85
2022/10/16 00:11:33;;;;;;;1.60;1.50;;;13.60;99.90;;;;;;5025485;28;20397;-85
2022/10/16 00:14:00;;;;;;;3.53;1.52;;;13.60;99.90;;;;;;5011238;28;20034;-84
2022/10/16 00:16:26;;;;;;;5.05;1.70;;;13.60;99.90;;;;;;5027400;28;20026;-81
2022/10/16 00:18:51;;;;;;;3.38;1.30;;;13.50;99.90;;;;;;5026373;28;20397;-84
2022/10/16 00:21:25;;;;;;;2.15;1.30;;;13.60;99.90;;;;;;5028723;28;20087;-84
2022/10/16 00:23:55;;;;;;;4.95;1.50;;;13.60;99.90;;;;;;5013040;28;20061;-85
2022/10/16 00:26:21;;;;;;;4.32;1.40;;;13.60;99.90;;;;;;5012335;28;20465;-82
2022/10/16 00:28:47;;;;;;;3.97;1.40;;;13.50;99.90;;;;;;5012052;28;20035;-84
2022/10/16 00:31:13;;;;;;;2.70;1.55;;;13.50;99.90;;;;;;5011647;28;20630;-83
2022/10/16 00:33:39;;;;;;;3.38;1.20;;;13.60;99.90;;;;;;4991375;28;20029;-83
2022/10/16 00:36:05;;;;;;;3.28;1.30;;;13.60;99.90;;;;;;5030004;28;20061;-86
2022/10/16 00:38:30;;;;;;;3.25;1.23;;;13.60;99.90;;;;;;4993807;28;20509;-85
2022/10/16 00:40:56;;;;;;;3.67;1.17;;;13.50;99.90;;;;;;4995241;28;20033;-84
2022/10/16 00:43:37;;;;;;;1.20;1.10;;;13.50;99.90;;;;;;5028635;28;20452;-84
2022/10/16 00:46:03;;;;;;;16.75;1.58;;;13.60;99.90;;;;;;5027278;28;20025;-84
2022/10/16 00:48:29;;;;;;;3.22;1.23;;;13.50;99.90;;;;;;5010317;28;20049;-85
2022/10/16 00:50:55;;;;;;;3.67;1.25;;;13.60;99.90;;;;;;5012448;28;20072;-84
2022/10/16 00:53:23;;;;;;;3.65;1.17;;;13.60;99.90;;;;;;5026963;28;20042;-83
2022/10/16 00:55:49;;;;;;;2.47;0.90;;;13.50;99.90;;;;;;5010458;28;20032;-84
2022/10/16 00:58:14;;;;;;;3.15;1.35;;;13.50;99.90;;;;;;5028444;28;20544;-85
2022/10/16 01:00:40;;;;;;;1.95;1.08;;;13.50;99.90;;;;;;5026438;28;20076;-84
2022/10/16 01:03:23;;;;;;;3.47;1.38;;;13.50;99.90;;;;;;4995274;28;20091;-84
2022/10/16 01:06:53;;;;;;;7.78;1.67;;;13.50;99.90;;;;;;5009155;28;20061;-84
2022/10/16 01:09:26;;;;;;;3.97;1.20;;;13.50;99.90;;;;;;4945001;28;20492;-84
2022/10/16 01:12:01;;;;;;;4.57;1.15;;;13.40;99.90;;;;;;4997063;28;20045;-84
2022/10/16 01:14:32;;;;;;;1.55;1.00;;;13.50;99.90;;;;;;5027179;28;20025;-84
2022/10/16 01:17:11;;;;;;;3.08;1.95;;;13.40;99.90;;;;;;5009151;28;20175;-84
2022/10/16 01:19:49;;;;;;;2.08;1.23;;;13.40;99.90;;;;;;5026822;28;20089;-84
2022/10/16 01:22:14;;;;;;;3.67;1.13;;;13.40;99.90;;;;;;5026728;28;20037;-83
2022/10/16 01:24:42;;;;;;;2.05;1.58;;;13.40;99.90;;;;;;5009078;28;20629;-84
2022/10/16 01:27:20;;;;;;;3.67;1.50;;;13.40;99.90;;;;;;5012999;28;20041;-84
2022/10/16 01:29:53;;;;;;;2.33;1.10;;;13.40;99.90;;;;;;5014999;28;20037;-84
2022/10/16 01:32:39;;;;;;;3.55;1.40;;;13.40;99.90;;;;;;5017036;28;20033;-84
2022/10/16 01:35:15;;;;;;;2.60;0.90;;;13.40;99.90;;;;;;5016582;28;20124;-84
2022/10/16 01:37:46;;;;;;;2.30;1.30;;;13.30;99.90;;;;;;5015534;28;20137;-84
2022/10/16 01:40:12;;;;;;;3.85;1.13;;;13.30;99.90;;;;;;5016788;28;20481;-84
2022/10/16 01:42:43;;;;;;;1.52;1.08;;;13.30;99.90;;;;;;5017182;28;20026;-84
2022/10/16 01:45:11;;;;;;;2.45;1.10;;;13.30;99.90;;;;;;5014014;28;20064;-84
2022/10/16 01:47:36;;;;;;;2.10;1.17;;;13.30;99.90;;;;;;5014502;28;20063;-83
2022/10/16 01:50:04;;;;;;;9.20;1.63;;;13.30;99.90;;;;;;5014441;28;20057;-84
2022/10/16 01:52:30;;;;;;;2.50;1.30;;;13.20;99.90;;;;;;5002364;28;20037;-83
2022/10/16 01:54:55;;;;;;;1.15;1.02;;;13.20;99.90;;;;;;5030526;28;20109;-80
2022/10/16 01:57:21;;;;;;;2.13;1.10;;;13.30;99.90;;;;;;5012540;28;20032;-84
2022/10/16 01:59:48;;;;;;;2.92;1.15;;;13.30;99.90;;;;;;5001102;28;20033;-83
2022/10/16 02:02:14;;;;;;;3.20;1.00;;;13.30;99.90;;;;;;4995426;28;20030;-83
2022/10/16 02:04:44;;;;;;;6.32;1.42;;;13.30;99.90;;;;;;5012180;28;20029;-83
2022/10/16 02:07:09;;;;;;;3.80;1.20;;;13.30;99.90;;;;;;5006815;28;20049;-83
2022/10/16 02:09:35;;;;;;;2.45;1.02;;;13.30;99.90;;;;;;4995215;28;20064;-83
2022/10/16 02:12:03;;;;;;;0.93;0.75;;;13.30;99.90;;;;;;5012325;28;20371;-83
2022/10/16 02:14:29;;;;;;;3.55;1.00;;;13.30;99.90;;;;;;5011483;28;20564;-83
2022/10/16 02:16:55;;;;;;;1.40;1.20;;;13.40;99.90;;;;;;4995462;28;20109;-83
2022/10/16 02:19:20;;;;;;;1.25;1.10;;;13.40;99.90;;;;;;5029317;28;20040;-83
2022/10/16 02:22:00;;;;;;;3.17;1.02;;;13.40;99.90;;;;;;5011444;28;20072;-83
2022/10/16 02:24:50;;;;;;;2.15;1.10;;;13.30;99.90;;;;;;5011521;28;20068;-83
2022/10/16 02:27:35;;;;;;;1.23;0.90;;;13.40;99.90;;;;;;5028345;28;20493;-83
2022/10/16 02:30:09;;;;;;;1.48;1.00;;;13.30;99.90;;;;;;5027475;28;20029;-81
2022/10/16 02:32:35;;;;;;;3.83;1.23;;;13.30;99.90;;;;;;5028456;28;20026;-79
2022/10/16 02:35:01;;;;;;;2.85;1.50;;;13.20;99.90;;;;;;4995779;28;20508;-78
2022/10/16 02:37:27;;;;;;;1.48;1.10;;;13.20;99.90;;;;;;5026817;28;20405;-79
2022/10/16 02:39:53;;;;;;;2.75;1.17;;;13.20;99.90;;;;;;4997108;28;20083;-79
2022/10/16 02:42:18;;;;;;;1.42;1.20;;;13.20;99.90;;;;;;5003678;28;20128;-78
2022/10/16 02:44:44;;;;;;;2.63;1.73;;;13.10;99.90;;;;;;5001771;28;20040;-79
2022/10/16 02:47:09;;;;;;;4.65;2.38;;;13.20;99.90;;;;;;5012492;28;20127;-79
2022/10/16 02:49:35;;;;;;;3.08;0.98;;;13.20;99.90;;;;;;5010948;28;20072;-79
2022/10/16 02:52:01;;;;;;;4.22;1.27;;;13.20;99.90;;;;;;5010611;28;20033;-78
2022/10/16 02:54:26;;;;;;;1.48;1.10;;;13.20;99.90;;;;;;5028313;28;20037;-78
2022/10/16 02:56:52;;;;;;;2.85;1.20;;;13.30;99.90;;;;;;5011436;28;20025;-77
2022/10/16 02:59:17;;;;;;;1.70;1.20;;;13.20;99.90;;;;;;5027572;28;20052;-76
2022/10/16 03:01:43;;;;;;;2.47;1.00;;;13.30;99.90;;;;;;5011145;28;20045;-77
2022/10/16 03:04:08;;;;;;;2.38;1.00;;;13.30;99.90;;;;;;5011503;28;20108;-76
2022/10/16 03:06:34;;;;;;;1.75;1.00;;;13.30;99.90;;;;;;5011903;28;20034;-77
2022/10/16 03:09:00;;;;;;;2.78;1.58;;;13.40;99.90;;;;;;4994814;28;20042;-78
2022/10/16 03:11:26;;;;;;;3.85;0.90;;;13.40;99.90;;;;;;5011263;28;20551;-78
2022/10/16 03:13:51;;;;;;;0.93;0.90;;;13.40;99.90;;;;;;5028967;28;20052;-79
2022/10/16 03:16:17;;;;;;;1.60;1.10;;;13.40;99.90;;;;;;5012278;28;20026;-79
2022/10/16 03:18:42;;;;;;;1.35;0.95;;;13.40;99.90;;;;;;5011519;28;20037;-79
2022/10/16 03:21:08;;;;;;;1.20;0.80;;;13.40;99.90;;;;;;4997936;28;20025;-79
2022/10/16 03:23:33;;;;;;;0.90;0.80;;;13.50;99.90;;;;;;5027451;28;20029;-78
2022/10/16 03:25:59;;;;;;;1.70;1.10;;;13.40;99.90;;;;;;5011031;28;20175;-79
2022/10/16 03:28:24;;;;;;;0.90;0.90;;;13.40;99.90;;;;;;4994846;28;20039;-78
2022/10/16 03:30:50;;;;;;;1.20;1.10;;;13.40;99.90;;;;;;5009296;28;20396;-78
2022/10/16 03:33:16;;;;;;;1.38;0.95;;;13.50;99.90;;;;;;4994386;28;20045;-78
2022/10/16 03:35:41;;;;;;;0.88;0.88;;;13.40;99.90;;;;;;5009778;28;20041;-78
2022/10/16 03:38:07;;;;;;;2.17;1.05;;;13.40;99.90;;;;;;5010474;28;20037;-79
2022/10/16 03:40:32;;;;;;;2.65;1.02;;;13.40;99.90;;;;;;5009325;28;20036;-78
2022/10/16 03:42:58;;;;;;;3.10;1.10;;;13.50;99.90;;;;;;5010320;28;20125;-79
2022/10/16 03:45:24;;;;;;;1.52;1.00;;;13.40;99.90;;;;;;5010477;28;20101;-77
2022/10/16 03:47:50;;;;;;;1.48;0.80;;;13.40;99.90;;;;;;4994209;28;20088;-78
2022/10/16 03:50:15;;;;;;;3.35;1.05;;;13.50;99.90;;;;;;5026072;28;20046;-78
2022/10/16 03:52:41;;;;;;;1.20;0.80;;;13.50;99.90;;;;;;5012503;28;20036;-78
2022/10/16 03:55:07;;;;;;;1.40;0.98;;;13.40;99.90;;;;;;5010671;28;20037;-79
2022/10/16 03:57:33;;;;;;;1.35;0.90;;;13.50;99.90;;;;;;5009770;28;20036;-78
2022/10/16 03:59:58;;;;;;;3.90;1.00;;;13.40;99.90;;;;;;4993850;28;20025;-78
2022/10/16 04:02:24;;;;;;;2.53;0.90;;;13.40;99.90;;;;;;5009978;28;20054;-79
2022/10/16 04:04:49;;;;;;;0.85;0.70;;;13.40;99.90;;;;;;4994875;28;20091;-80
2022/10/16 04:07:15;;;;;;;1.88;0.90;;;13.40;99.90;;;;;;5009890;28;20030;-78
2022/10/16 04:09:41;;;;;;;1.40;0.75;;;13.30;99.90;;;;;;5009597;28;20426;-79
2022/10/16 04:12:07;;;;;;;1.38;0.85;;;13.30;99.90;;;;;;5011256;28;20126;-78
2022/10/16 04:14:33;;;;;;;1.58;1.10;;;13.30;99.90;;;;;;4992344;28;20478;-79
2022/10/16 04:16:58;;;;;;;3.75;1.75;;;13.30;99.90;;;;;;5006647;28;20367;-78
2022/10/16 04:19:24;;;;;;;1.55;0.95;;;13.30;99.90;;;;;;5026309;28;20037;-79
2022/10/16 04:21:49;;;;;;;1.20;1.10;;;13.30;99.90;;;;;;5010183;28;20033;-78
2022/10/16 04:24:15;;;;;;;2.70;1.38;;;13.30;99.90;;;;;;5026633;28;20042;-79
2022/10/16 04:26:40;;;;;;;2.60;0.98;;;13.30;99.90;;;;;;5010107;28;20050;-78
2022/10/16 04:29:06;;;;;;;1.80;0.60;;;13.30;99.90;;;;;;5027853;28;20079;-78
2022/10/16 04:31:32;;;;;;;1.50;1.10;;;13.30;99.90;;;;;;4991091;28;20088;-78
2022/10/16 04:33:58;;;;;;;1.42;1.17;;;13.20;99.90;;;;;;4992225;28;20025;-80
2022/10/16 04:36:24;;;;;;;1.55;1.05;;;13.20;99.90;;;;;;5009583;28;20362;-78
2022/10/16 04:38:49;;;;;;;1.02;0.93;;;13.20;99.90;;;;;;5008897;28;20026;-78
2022/10/16 04:41:15;;;;;;;1.40;0.90;;;13.20;99.90;;;;;;5008364;28;20087;-77
2022/10/16 04:43:40;;;;;;;3.22;0.98;;;13.30;99.90;;;;;;5008698;28;20040;-78
2022/10/16 04:46:06;;;;;;;2.53;0.80;;;13.20;99.90;;;;;;5008235;28;20044;-78
2022/10/16 04:48:32;;;;;;;3.25;1.20;;;13.20;99.90;;;;;;4992587;28;20485;-78
2022/10/16 04:50:57;;;;;;;1.13;0.90;;;13.30;99.90;;;;;;5008616;28;20076;-79
2022/10/16 04:53:23;;;;;;;3.50;0.80;;;13.20;99.90;;;;;;5009171;28;20029;-79
2022/10/16 04:55:49;;;;;;;1.23;0.80;;;13.20;99.90;;;;;;5025014;28;20033;-79
2022/10/16 04:58:15;;;;;;;2.05;0.80;;;13.20;99.90;;;;;;5025061;28;20090;-78
2022/10/16 05:00:40;;;;;;;1.95;1.10;;;13.10;99.90;;;;;;5026203;28;20029;-79
2022/10/16 05:03:08;;;;;;;1.50;0.88;;;13.20;99.90;;;;;;5012496;28;20026;-79
2022/10/16 05:05:34;;;;;;;0.85;0.85;;;13.20;99.90;;;;;;5028445;28;20056;-78
2022/10/16 05:07:59;;;;;;;1.77;0.88;;;13.20;99.90;;;;;;5011267;28;20033;-78
2022/10/16 05:10:25;;;;;;;4.15;0.80;;;13.20;99.90;;;;;;5012809;28;20025;-78
2022/10/16 05:12:51;;;;;;;0.77;0.77;;;13.20;99.90;;;;;;5017676;28;20029;-78
2022/10/16 05:15:17;;;;;;;2.83;0.80;;;13.20;99.90;;;;;;5012925;28;21624;-78
2022/10/16 05:17:42;;;;;;;1.33;1.23;;;13.20;99.90;;;;;;5012182;28;20029;-78
2022/10/16 05:20:08;;;;;;;1.17;0.85;;;13.20;99.90;;;;;;4997188;28;20029;-79
2022/10/16 05:22:33;;;;;;;1.33;0.93;;;13.20;99.90;;;;;;5029824;28;20044;-78
2022/10/16 05:24:59;;;;;;;1.05;0.95;;;13.10;99.90;;;;;;5013777;28;20060;-78
2022/10/16 05:27:25;;;;;;;1.35;0.75;;;13.20;99.90;;;;;;4665926;28;9999718;-78
2022/10/16 05:29:50;;;;;;;3.78;1.00;;;13.20;99.90;;;;;;5012098;28;20029;-78
2022/10/16 05:32:16;;;;;;;2.95;0.88;;;13.20;99.90;;;;;;5029540;28;20113;-79
2022/10/16 05:34:42;;;;;;;0.90;0.55;;;13.20;99.90;;;;;;4995509;28;20037;-80
2022/10/16 05:37:08;;;;;;;4.47;1.00;;;13.20;99.90;;;;;;4994124;28;20052;-78
2022/10/16 05:39:33;;;;;;;1.30;0.80;;;13.20;99.90;;;;;;5013044;28;20484;-79
2022/10/16 05:41:59;;;;;;;1.50;0.75;;;13.20;99.90;;;;;;4995447;28;20040;-79
2022/10/16 05:44:24;;;;;;;3.67;1.00;;;13.20;99.90;;;;;;5027362;28;20032;-78
2022/10/16 05:46:50;;;;;;;1.02;0.93;;;13.20;99.90;;;;;;5018688;28;20405;-78
2022/10/16 05:49:16;;;;;;;1.67;1.27;;;13.20;99.90;;;;;;5020960;28;20624;-79
2022/10/16 05:51:42;;;;;;;2.92;1.10;;;13.20;99.90;;;;;;4994271;28;20029;-79
2022/10/16 05:54:08;;;;;;;0.85;0.57;;;13.20;99.90;;;;;;4994909;28;20496;-79
2022/10/16 05:56:33;;;;;;;1.60;0.98;;;13.20;99.90;;;;;;5029286;28;20112;-78
2022/10/16 05:58:59;;;;;;;1.80;1.10;;;13.20;99.90;;;;;;5012653;28;20453;-79
2022/10/16 06:01:24;;;;;;;1.83;1.00;;;13.20;99.90;;;;;;5012217;28;20438;-79
2022/10/16 06:03:51;;;;;;;3.53;1.10;;;13.20;99.90;;;;;;5013449;28;20488;-78
2022/10/16 06:06:19;;;;;;;4.43;1.00;;;13.20;99.90;;;;;;5012675;28;20056;-78
2022/10/16 06:08:45;;;;;;;1.38;0.90;;;13.20;99.90;;;;;;5011591;28;20092;-79
2022/10/16 06:11:13;;;;;;;1.08;0.68;;;13.20;99.90;;;;;;4998170;28;20033;-78
2022/10/16 06:13:41;;;;;;;3.67;1.23;;;13.20;99.90;;;;;;4993414;28;20095;-78
2022/10/16 06:16:07;;;;;;;2.50;0.90;;;13.20;99.90;;;;;;5014009;28;20832;-78
2022/10/16 06:18:32;;;;;;;1.20;1.10;;;13.20;99.90;;;;;;4992283;28;20117;-78
2022/10/16 06:20:58;;;;;;;1.20;1.10;;;13.20;99.90;;;;;;5011942;28;20026;-78
2022/10/16 06:23:28;;;;;;;1.83;1.13;;;13.20;99.90;;;;;;5010004;28;20030;-78
2022/10/16 06:25:54;;;;;;;1.10;1.10;;;13.10;99.90;;;;;;4994673;28;20041;-78
2022/10/16 06:28:19;;;;;;;1.25;1.00;;;13.20;99.90;;;;;;5027554;28;20022;-78
2022/10/16 06:30:45;;;;;;;3.47;1.10;;;13.20;99.90;;;;;;5008005;28;20105;-78
2022/10/16 06:33:11;;;;;;;1.83;1.20;;;13.20;99.90;;;;;;5028541;28;20025;-78
2022/10/16 06:35:37;;;;;;;1.67;0.85;;;13.20;99.90;;;;;;5010093;28;20481;-78
2022/10/16 06:38:02;;;;;;;1.38;1.10;;;13.20;99.90;;;;;;5000012;28;20612;-78
2022/10/16 06:40:28;;;;;;;2.22;1.13;;;13.30;99.90;;;;;;5011815;28;20448;-81
2022/10/16 06:42:56;;;;;;;1.63;1.15;;;13.30;99.90;;;;;;5026829;28;20048;-82
2022/10/16 06:45:22;;;;;;;1.73;1.30;;;13.30;99.90;;;;;;4988863;28;20017;-81
2022/10/16 06:47:48;;;;;;;2.08;1.05;;;13.30;99.90;;;;;;5011904;28;20538;-82
2022/10/16 06:50:13;;;;;;;1.20;0.80;;;13.40;99.90;;;;;;5027627;28;20505;-82
2022/10/16 06:52:39;;;;;;;2.03;1.27;;;13.40;99.90;;;;;;5027509;28;20037;-83
2022/10/16 06:55:05;;;;;;;0.90;0.63;;;13.50;99.90;;;;;;5011592;28;20030;-81
2022/10/16 06:57:31;;;;;;;0.88;0.70;;;13.50;99.90;;;;;;5026733;28;20025;-81
2022/10/16 06:59:56;;;;;;;1.33;0.80;;;13.50;99.90;;;;;;5011456;28;20034;-82
2022/10/16 07:02:22;;;;;;;4.05;1.15;;;13.60;99.90;;;;;;5026408;28;20036;-83
2022/10/16 07:04:47;;;;;;;1.30;1.05;;;13.60;99.90;;;;;;5008918;28;20029;-82
2022/10/16 07:07:13;;;;;;;1.63;0.85;;;13.60;99.90;;;;;;5019808;28;20103;-82
2022/10/16 07:09:39;;;;;;;1.50;0.95;;;13.60;99.90;;;;;;5026648;28;20040;-82
2022/10/16 07:12:05;;;;;;;2.75;1.10;;;13.60;99.90;;;;;;5010572;28;20041;-79
2022/10/16 07:14:31;;;;;;;1.90;1.23;;;13.60;99.90;;;;;;5026204;28;20083;-78
2022/10/16 07:16:56;;;;;;;2.80;1.20;;;13.70;99.90;;;;;;4993151;28;20060;-78
2022/10/16 07:19:22;;;;;;;1.33;1.15;;;13.70;99.90;;;;;;5007731;28;20362;-78
2022/10/16 07:21:48;;;;;;;4.50;1.40;;;13.70;99.90;;;;;;5010082;28;20057;-79
2022/10/16 07:24:15;;;;;;;4.05;1.35;;;13.70;99.90;;;;;;5026239;28;21046;-78
2022/10/16 07:26:41;;;;;;;1.73;1.20;;;13.70;99.90;;;;;;5008863;28;20030;-78
2022/10/16 07:29:11;;;;;;;1.38;1.27;;;13.70;99.90;;;;;;5026918;28;20072;-78
2022/10/16 07:31:37;;;;;;;1.42;1.10;;;13.70;99.90;;;;;;4999018;28;20068;-78
2022/10/16 07:34:03;;;;;;;2.53;1.30;;;13.70;99.90;;;;;;5010163;28;20095;-78
2022/10/16 07:36:28;;;;;;;2.05;1.00;;;13.70;99.90;;;;;;5009876;28;20492;-78
2022/10/16 07:38:54;;;;;;;1.52;1.20;;;13.70;99.90;;;;;;4993654;28;20088;-79
2022/10/16 07:41:20;;;;;;;5.38;1.50;;;13.70;99.90;;;;;;5009572;28;20544;-78
2022/10/16 07:43:49;;;;;;;2.80;1.40;;;13.70;99.90;;;;;;5026722;28;20029;-77
2022/10/16 07:46:15;;;;;;;5.43;1.25;;;13.80;99.90;;;;;;4990403;28;20163;-78
2022/10/16 07:48:40;;;;;;;1.10;1.00;;;13.90;99.90;;;;;;5008523;28;20121;-77
2022/10/16 07:51:06;;;;;;;1.98;1.10;;;14.00;99.90;;;;;;4994425;28;20025;-77
2022/10/16 07:53:32;;;;;;;2.22;1.17;;;14.00;99.90;;;;;;5009304;28;20033;-77
2022/10/16 07:55:59;;;;;;;3.08;0.63;;;14.20;99.90;;;;;;4997814;28;20044;-77
2022/10/16 07:58:24;;;;;;;1.58;1.00;;;14.30;99.90;;;;;;5010049;28;20022;-79
2022/10/16 08:00:50;;;;;;;3.40;0.98;;;14.40;99.90;;;;;;5025442;28;20025;-80
2022/10/16 08:03:15;;;;;;;2.97;1.05;;;14.50;99.90;;;;;;5008232;28;20037;-80
2022/10/16 08:05:41;;;;;;;1.75;1.10;;;14.50;99.90;;;;;;4993288;28;20136;-80
2022/10/16 08:08:10;;;;;;;1.25;1.10;;;14.70;99.90;;;;;;5009947;28;20466;-80
2022/10/16 08:10:36;;;;;;;1.25;1.05;;;14.90;99.90;;;;;;5024031;28;20106;-80
2022/10/16 08:13:02;;;;;;;1.40;1.20;;;15.10;99.90;;;;;;5010055;28;20084;-79
2022/10/16 08:15:27;;;;;;;3.70;1.15;;;15.20;99.90;;;;;;4995199;28;20029;-80
2022/10/16 08:18:00;;;;;;;9.68;3.38;;;15.40;99.90;;;;;;5010392;28;20096;-80
2022/10/16 08:20:26;;;;;;;2.92;0.80;;;15.30;99.90;;;;;;5006052;28;20076;-80
2022/10/16 08:22:52;;;;;;;1.85;1.20;;;15.70;99.90;;;;;;4992948;28;20026;-80
2022/10/16 08:25:17;;;;;;;5.07;0.80;;;15.80;99.90;;;;;;5025540;28;20087;-80
2022/10/16 08:27:44;;;;;;;1.75;1.00;;;15.80;99.90;;;;;;5009020;28;20061;-80
2022/10/16 08:30:10;;;;;;;1.95;1.13;;;15.70;99.90;;;;;;4993282;28;20392;-80
2022/10/16 08:32:38;;;;;;;1.10;1.00;;;15.90;99.90;;;;;;4992144;28;20029;-80
2022/10/16 08:35:04;;;;;;;1.50;0.90;;;16.00;99.90;;;;;;5010370;28;20034;-80
2022/10/16 08:37:30;;;;;;;1.50;1.10;;;16.20;99.90;;;;;;5024954;28;20547;-80
2022/10/16 08:39:56;;;;;;;4.25;1.13;;;16.30;99.90;;;;;;5007993;28;20499;-80
2022/10/16 08:42:40;;;;;;;3.03;0.93;;;16.10;99.90;;;;;;5006239;28;20037;-80
2022/10/16 08:45:06;;;;;;;2.22;0.73;;;16.20;99.90;;;;;;5024354;28;20618;-80
2022/10/16 08:48:08;;;;;;;0.60;0.50;;;16.70;99.90;;;;;;5025813;28;20030;-81
2022/10/16 08:50:39;;;;;;;2.42;0.80;;;16.20;99.90;;;;;;5024939;28;20061;-80
2022/10/16 08:53:05;;;;;;;3.17;1.23;;;16.80;99.90;;;;;;4985260;28;20121;-81
2022/10/16 08:55:48;;;;;;;1.30;0.55;;;17.00;99.90;;;;;;5015369;28;20029;-80
2022/10/16 08:58:15;;;;;;;3.08;0.57;;;17.00;99.90;;;;;;5009165;28;20441;-80
2022/10/16 09:00:41;;;;;;;1.13;0.60;;;16.90;99.90;;;;;;4992612;28;20030;-79
2022/10/16 09:03:29;;;;;;;2.00;0.95;;;17.00;99.90;;;;;;5009186;28;20784;-81
2022/10/16 09:05:57;;;;;;;1.85;0.70;;;17.10;99.90;;;;;;5023715;28;20112;-80
2022/10/16 09:08:52;;;;;;;1.40;0.93;;;17.10;99.90;;;;;;5027523;28;20099;-80
2022/10/16 09:11:52;;;;;;;3.60;0.73;;;17.30;99.90;;;;;;5021577;28;20034;-80
2022/10/16 09:14:18;;;;;;;2.25;0.70;;;17.40;99.90;;;;;;5010151;28;20374;-80
2022/10/16 09:16:46;;;;;;;1.02;0.60;;;17.60;99.90;;;;;;5025097;28;20125;-81
2022/10/16 09:19:34;;;;;;;1.23;0.60;;;17.80;99.90;;;;;;4991958;28;20029;-78
2022/10/16 09:22:02;;;;;;;1.73;0.70;;;18.00;99.90;;;;;;5011638;28;20030;-78
2022/10/16 09:24:28;;;;;;;2.22;0.75;;;18.10;99.90;;;;;;5007155;28;20029;-80
2022/10/16 09:26:53;;;;;;;4.32;1.13;;;18.10;99.90;;;;;;5009205;28;20028;-78
2022/10/16 09:29:24;;;;;;;2.20;0.73;;;18.20;99.90;;;;;;5007564;28;20103;-79
2022/10/16 09:31:51;;;;;;;1.80;1.05;;;18.10;99.90;;;;;;4991789;28;20099;-81
2022/10/16 09:34:47;;;;;;;2.88;1.00;;;18.50;99.90;;;;;;5009179;28;20057;-79
2022/10/16 09:37:14;;;;;;;2.60;0.70;;;18.60;99.90;;;;;;4992543;28;20033;-81
2022/10/16 09:39:50;;;;;;;0.85;0.60;;;18.70;99.90;;;;;;4993738;28;20025;-80
2022/10/16 09:42:36;;;;;;;;;;;18.90;99.90;;;;;;4992629;28;20037;-78
2022/10/16 09:45:01;;;;;;;1.70;0.40;;;18.90;99.90;;;;;;5025564;28;20443;-79
2022/10/16 09:47:28;;;;;;;3.15;0.73;;;18.70;99.90;;;;;;5025557;28;20041;-78
2022/10/16 09:50:02;;;;;;;1.38;0.65;;;18.70;99.90;;;;;;5013301;28;20136;-81
2022/10/16 09:52:30;;;;;;;2.17;0.43;;;19.10;99.90;;;;;;5012979;28;20128;-81
2022/10/16 09:54:57;;;;;;;1.20;0.82;;;19.20;99.90;;;;;;4995193;28;20408;-81
2022/10/16 09:57:22;;;;;;;4.45;0.73;;;19.20;99.90;;;;;;5028447;28;20026;-80
2022/10/16 09:59:52;;;;;;;1.25;0.50;;;19.40;99.90;;;;;;5030704;28;20676;-81
2022/10/16 10:02:22;;;;;;;8.60;0.70;;;19.40;99.90;;;;;;5012562;28;20044;-78
2022/10/16 10:04:51;;;;;;;2.47;0.57;;;19.30;99.90;;;;;;4995432;28;20033;-78
2022/10/16 10:07:42;;;;;;;3.05;0.70;;;19.60;99.90;;;;;;4996549;28;20033;-79
2022/10/16 10:10:21;;;;;;;0.95;0.52;;;19.80;99.90;;;;;;5003287;28;20046;-78
2022/10/16 10:12:46;;;;;;;0.70;0.43;;;19.80;99.90;;;;;;5012205;28;20048;-79
2022/10/16 10:15:12;;;;;;;3.03;0.22;;;19.70;99.90;;;;;;5029189;28;20110;-77
2022/10/16 10:18:21;;;;;;;0.85;0.47;;;19.90;99.90;;;;;;5012957;28;20033;-77
2022/10/16 10:20:47;;;;;;;1.02;0.52;;;19.80;99.90;;;;;;5020300;28;20048;-76
2022/10/16 10:23:26;;;;;;;2.22;0.60;;;19.90;99.90;;;;;;5008658;28;20042;-76
2022/10/16 10:26:13;;;;;;;2.90;1.17;;;19.70;99.90;;;;;;4996600;28;20029;-78
2022/10/16 10:28:59;;;;;;;3.42;0.50;;;20.20;99.90;;;;;;5025881;28;20476;-77
2022/10/16 10:31:25;;;;;;;5.05;0.80;;;20.50;99.90;;;;;;5026660;28;20084;-77
2022/10/16 10:33:54;;;;;;;5.40;0.70;;;20.40;99.90;;;;;;5029305;28;20041;-77
2022/10/16 10:36:29;;;;;;;0.55;0.32;;;20.90;99.90;;;;;;5029271;28;20041;-80
2022/10/16 10:38:59;;;;;;;2.53;0.50;;;21.00;99.90;;;;;;5010376;28;20053;-80
2022/10/16 10:41:36;;;;;;;1.45;0.73;;;21.30;99.90;;;;;;5026405;28;20117;-82
2022/10/16 10:44:07;;;;;;;1.75;0.52;;;20.70;99.90;;;;;;5012660;28;20039;-81
2022/10/16 10:46:36;;;;;;;1.77;0.52;;;20.90;99.90;;;;;;5028614;28;20116;-81
2022/10/16 10:49:14;;;;;;;0.75;0.40;;;21.10;99.90;;;;;;5030376;28;20060;-81
2022/10/16 10:51:43;;;;;;;3.80;0.60;;;20.90;99.90;;;;;;5011359;28;20037;-78
2022/10/16 10:54:20;;;;;;;1.38;0.35;;;21.10;99.90;;;;;;5012030;28;20029;-79
2022/10/16 10:56:56;;;;;;;1.92;0.50;;;21.30;99.90;;;;;;5004055;28;20021;-79
2022/10/16 10:59:28;;;;;;;;;;;21.30;99.90;;;;;;5026786;28;20033;-79
2022/10/16 11:02:10;;;;;;;0.60;0.40;;;21.40;99.90;;;;;;5027535;28;20402;-79
2022/10/16 11:04:52;;;;;;;3.03;0.68;;;21.50;99.90;;;;;;5025585;28;20041;-79
2022/10/16 11:07:24;;;;;;;1.50;0.50;;;21.90;99.90;;;;;;5010059;28;20041;-80
2022/10/16 11:10:13;;;;;;;1.23;0.50;;;22.30;99.90;;;;;;5023491;28;20041;-79
2022/10/16 11:12:41;;;;;;;1.08;0.50;;;22.50;99.90;;;;;;4993323;28;20035;-79
2022/10/16 11:15:29;;;;;;;1.80;0.52;;;21.90;99.90;;;;;;5025592;28;20508;-80
2022/10/16 11:18:03;;;;;;;2.30;0.73;;;22.00;99.90;;;;;;5011779;28;20124;-80
2022/10/16 11:20:31;;;;;;;0.32;0.32;;;22.30;99.90;;;;;;5042471;28;20033;-79
2022/10/16 11:23:18;;;;;;;1.63;0.50;;;22.10;99.90;;;;;;5011765;28;20033;-82
2022/10/16 11:25:44;;;;;;;3.65;0.70;;;22.10;99.90;;;;;;5009586;28;20040;-81
2022/10/16 11:28:20;;;;;;;0.73;0.50;;;22.40;99.90;;;;;;5012577;28;20037;-81
2022/10/16 11:31:02;;;;;;;1.58;0.60;;;22.30;99.90;;;;;;5010816;28;20036;-81
2022/10/16 11:33:36;;;;;;;1.20;0.40;;;22.00;99.90;;;;;;5011861;28;20045;-80
2022/10/16 11:36:38;;;;;;;5.18;0.50;;;22.10;99.90;;;;;;5011835;28;20477;-80
2022/10/16 11:39:12;;;;;;;2.47;0.50;;;21.30;99.90;;;;;;5028044;28;20033;-80
2022/10/16 11:41:39;;;;;;;1.42;0.43;;;22.50;99.90;;;;;;5028134;28;20033;-80
2022/10/16 11:44:18;;;;;;;5.75;0.55;;;22.60;99.90;;;;;;5007057;28;20041;-80
2022/10/16 11:46:48;;;;;;;2.08;0.45;;;22.80;99.90;;;;;;4692774;28;10000214;-80
2022/10/16 11:49:21;;;;;;;4.22;0.50;;;23.20;99.90;;;;;;5008337;28;20579;-80
2022/10/16 11:52:13;;;;;;;4.35;0.60;;;23.10;99.90;;;;;;5024045;28;20036;-81
2022/10/16 11:54:54;;;;;;;3.70;0.57;;;23.50;99.90;;;;;;5004621;28;20493;-80
2022/10/16 11:57:23;;;;;;;2.55;0.43;;;23.50;99.90;;;;;;5023676;28;20374;-80
2022/10/16 11:59:57;;;;;;;1.73;0.60;;;23.20;99.90;;;;;;5007952;28;20041;-80
2022/10/16 12:02:50;;;;;;;1.63;0.52;;;23.00;99.90;;;;;;5004579;28;20521;-80
2022/10/16 12:05:29;;;;;;;1.23;0.57;;;22.60;99.90;;;;;;5016481;28;20053;-79
2022/10/16 12:08:04;;;;;;;2.33;0.50;;;23.40;99.90;;;;;;5022988;28;20045;-80
2022/10/16 12:10:31;;;;;;;2.28;0.63;;;23.60;99.90;;;;;;5004606;28;20489;-80
2022/10/16 12:12:57;;;;;;;1.13;0.50;;;24.10;99.90;;;;;;5009071;28;20087;-80
2022/10/16 12:15:25;;;;;;;3.38;0.70;;;23.30;99.90;;;;;;5024000;28;20029;-80
2022/10/16 12:17:51;;;;;;;2.50;0.40;;;23.30;99.90;;;;;;5016434;28;20519;-80
2022/10/16 12:20:17;;;;;;;2.53;0.50;;;23.40;99.90;;;;;;5026725;28;20026;-80
2022/10/16 12:22:54;;;;;;;1.83;0.50;;;23.30;99.90;;;;;;5024472;28;20041;-78
2022/10/16 12:25:25;;;;;;;6.30;0.75;;;23.00;99.90;;;;;;5007630;28;20025;-79
2022/10/16 12:27:55;;;;;;;1.23;0.40;;;23.30;99.90;;;;;;4985928;28;20441;-79
2022/10/16 12:30:23;;;;;;;3.35;0.60;;;23.40;99.90;;;;;;5008584;28;20485;-78
2022/10/16 12:32:59;;;;;;;2.05;0.40;;;23.10;99.90;;;;;;5010128;28;20120;-78
2022/10/16 12:35:27;;;;;;;2.42;0.50;;;23.50;99.90;;;;;;5013679;28;20056;-79
2022/10/16 12:37:53;;;;;;;2.85;0.57;;;22.80;99.90;;;;;;5009758;28;20040;-79
2022/10/16 12:40:22;;;;;;;2.15;0.43;;;22.90;99.90;;;;;;5025471;28;20029;-79
2022/10/16 12:42:47;;;;;;;2.40;0.57;;;23.20;99.90;;;;;;5020550;28;20036;-79
2022/10/16 12:45:42;;;;;;;1.23;0.40;;;23.00;99.90;;;;;;5010958;28;20036;-80
2022/10/16 12:48:21;;;;;;;2.13;0.40;;;23.10;99.90;;;;;;4993289;28;20128;-80
2022/10/16 12:50:47;;;;;;;3.30;0.40;;;23.40;99.90;;;;;;4993366;28;20617;-80
2022/10/16 12:53:31;;;;;;;1.15;0.45;;;23.50;99.90;;;;;;5026460;28;20090;-80
2022/10/16 12:56:19;;;;;;;1.42;0.60;;;23.10;99.90;;;;;;4993514;28;20440;-80
2022/10/16 12:59:03;;;;;;;1.90;0.40;;;23.10;99.90;;;;;;5003558;28;20032;-80
2022/10/16 13:01:41;;;;;;;1.17;0.40;;;22.60;99.90;;;;;;5024132;28;20040;-81